Time;durP1;ratioP1;P1;durP2;ratioP2;P2;SDS_P1;SDS_P2;PMS_P1;PMS_P2;Temp;Humidity;BMP_temperature;BMP_pressure;BME280_temperature;BME280_humidity;BME280_pressure;Samples;Min_cycle;Max_cycle;Signal;HPM_P1;HPM_P2
2022/10/15 00:01:33;;;;;;;31.65;24.58;;;;;;;10.97;100.00;100694.63;5052338;28;20032;-54
2022/10/15 00:03:59;;;;;;;32.97;25.00;;;;;;;10.93;100.00;100697.50;5050382;28;20108;-55
2022/10/15 00:06:25;;;;;;;35.42;26.40;;;;;;;10.91;100.00;100695.97;5052758;28;20479;-54
2022/10/15 00:08:50;;;;;;;35.72;26.42;;;;;;;10.88;100.00;100694.38;5052128;28;20459;-55
2022/10/15 00:11:19;;;;;;;33.72;26.75;;;;;;;10.83;100.00;100690.41;5044232;28;20102;-55
2022/10/15 00:13:45;;;;;;;38.30;25.98;;;;;;;10.86;100.00;100693.66;5052388;28;20313;-56
2022/10/15 00:16:13;;;;;;;34.20;25.85;;;;;;;10.85;100.00;100699.94;5052476;28;20032;-55
2022/10/15 00:18:39;;;;;;;38.97;27.70;;;;;;;10.84;100.00;100695.63;5051829;28;20405;-54
2022/10/15 00:21:07;;;;;;;36.00;27.10;;;;;;;10.84;100.00;100702.72;5051264;28;20029;-55
2022/10/15 00:23:32;;;;;;;36.67;27.13;;;;;;;10.83;100.00;100704.53;5052070;28;20079;-55
2022/10/15 00:26:03;;;;;;;33.75;26.33;;;;;;;10.83;100.00;100698.38;5046061;28;20037;-56
2022/10/15 00:28:29;;;;;;;39.38;27.90;;;;;;;10.84;100.00;100706.25;5051521;28;20059;-56
2022/10/15 00:31:03;;;;;;;32.65;26.48;;;;;;;10.84;100.00;100700.94;5052527;28;20028;-55
2022/10/15 00:33:29;;;;;;;34.78;27.38;;;;;;;10.85;100.00;100699.94;5051431;28;20510;-55
2022/10/15 00:36:02;;;;;;;36.92;27.67;;;;;;;10.86;100.00;100703.47;5052137;28;20025;-55
2022/10/15 00:38:27;;;;;;;35.88;27.00;;;;;;;10.87;100.00;100705.13;5041080;28;20041;-55
2022/10/15 00:40:53;;;;;;;40.13;27.88;;;;;;;10.87;100.00;100702.47;5052430;28;20024;-54
2022/10/15 00:43:39;;;;;;;35.97;26.42;;;;;;;10.88;100.00;100702.34;5052211;28;20025;-54
2022/10/15 00:46:15;;;;;;;34.30;26.20;;;;;;;10.89;100.00;100703.19;5040502;28;20034;-55
2022/10/15 00:48:41;;;;;;;33.63;26.58;;;;;;;10.88;100.00;100707.66;5051341;28;20032;-56
2022/10/15 00:51:07;;;;;;;32.50;26.88;;;;;;;10.92;100.00;100708.25;5051344;28;20057;-55
2022/10/15 00:53:33;;;;;;;34.55;27.33;;;;;;;10.92;100.00;100717.09;5047963;28;20063;-55
2022/10/15 00:56:00;;;;;;;32.83;25.75;;;;;;;10.92;100.00;100705.59;5052261;28;20501;-56
2022/10/15 00:58:30;;;;;;;32.88;26.50;;;;;;;10.92;100.00;100710.91;5041975;28;20036;-54
2022/10/15 01:00:56;;;;;;;32.50;26.83;;;;;;;10.95;100.00;100709.84;5049788;28;20031;-56
2022/10/15 01:03:23;;;;;;;33.28;27.83;;;;;;;10.96;100.00;100711.50;5051497;28;20021;-54
2022/10/15 01:05:50;;;;;;;32.35;28.25;;;;;;;11.00;100.00;100710.31;5052041;28;20032;-55
2022/10/15 01:08:16;;;;;;;33.72;28.05;;;;;;;11.00;100.00;100712.97;5051164;28;20032;-56
2022/10/15 01:10:47;;;;;;;36.72;27.73;;;;;;;11.01;100.00;100702.22;5051750;28;20029;-55
2022/10/15 01:13:34;;;;;;;33.90;27.60;;;;;;;11.01;100.00;100699.56;5047831;28;20025;-55
2022/10/15 01:16:15;;;;;;;33.65;27.48;;;;;;;11.03;100.00;100699.44;5051774;28;20029;-54
2022/10/15 01:18:48;;;;;;;30.65;26.95;;;;;;;11.05;100.00;100689.53;5051699;28;20037;-54
2022/10/15 01:21:28;;;;;;;34.17;28.15;;;;;;;11.08;100.00;100690.13;5051472;28;20032;-56
2022/10/15 01:24:21;;;;;;;33.25;27.63;;;;;;;11.11;100.00;100683.72;5052156;28;20135;-56
2022/10/15 01:27:02;;;;;;;31.45;27.88;;;;;;;11.13;100.00;100681.78;5042591;28;20083;-56
2022/10/15 01:30:04;;;;;;;34.03;27.83;;;;;;;11.16;100.00;100684.19;5042347;28;20035;-55
2022/10/15 01:32:43;;;;;;;33.20;28.77;;;;;;;11.17;100.00;100671.72;5051591;28;20032;-56
2022/10/15 01:35:25;;;;;;;36.65;29.15;;;;;;;11.20;100.00;100667.00;5051799;28;20040;-55
2022/10/15 01:38:13;;;;;;;33.13;27.00;;;;;;;11.20;100.00;100669.66;5050304;28;20037;-56
2022/10/15 01:40:48;;;;;;;31.15;27.30;;;;;;;11.24;100.00;100670.25;5051625;28;20044;-56
2022/10/15 01:43:26;;;;;;;36.25;28.25;;;;;;;11.27;100.00;100665.53;5051019;28;20094;-55
2022/10/15 01:45:56;;;;;;;33.25;28.20;;;;;;;11.26;100.00;100674.47;5051510;28;20029;-55
2022/10/15 01:48:26;;;;;;;37.85;28.48;;;;;;;11.28;100.00;100669.88;5054912;28;20025;-55
2022/10/15 01:50:53;;;;;;;;;;;;;;;11.34;100.00;100676.53;5055306;28;20072;-56
2022/10/15 01:53:25;;;;;;;33.53;27.10;;;;;;;11.32;100.00;100666.97;5054999;28;19950;-54
2022/10/15 01:55:55;;;;;;;35.55;27.17;;;;;;;11.33;100.00;100666.00;5055010;28;20033;-53
2022/10/15 01:58:22;;;;;;;37.28;27.67;;;;;;;11.34;100.00;100659.69;5047093;28;20037;-54
2022/10/15 02:00:50;;;;;;;34.28;26.85;;;;;;;11.36;100.00;100660.41;5054827;28;20463;-52
2022/10/15 02:03:16;;;;;;;32.00;26.98;;;;;;;11.36;100.00;100657.75;5049456;28;20047;-53
2022/10/15 02:05:48;;;;;;;30.63;27.27;;;;;;;11.36;100.00;100655.09;5054244;28;20421;-53
2022/10/15 02:08:35;;;;;;;33.88;27.63;;;;;;;11.40;100.00;100652.06;5052521;28;20083;-54
2022/10/15 02:11:08;;;;;;;33.65;27.90;;;;;;;11.42;100.00;100658.13;5041914;28;20516;-52
2022/10/15 02:14:01;;;;;;;32.65;27.02;;;;;;;11.44;100.00;100647.31;5049605;28;20033;-53
2022/10/15 02:16:45;;;;;;;31.88;27.38;;;;;;;11.45;100.00;100651.69;5054764;28;20048;-53
2022/10/15 02:19:20;;;;;;;31.63;26.60;;;;;;;11.47;100.00;100647.06;5042606;28;20033;-54
2022/10/15 02:21:52;;;;;;;32.97;27.48;;;;;;;11.47;100.00;100647.94;5051610;28;20033;-52
2022/10/15 02:24:27;;;;;;;36.47;27.27;;;;;;;11.49;100.00;100645.16;5054645;28;20032;-54
2022/10/15 02:26:56;;;;;;;31.85;27.63;;;;;;;11.50;100.00;100636.19;5054443;28;20079;-56
2022/10/15 02:29:23;;;;;;;;;;;;;;;11.56;100.00;100638.34;5047819;28;20372;-54
2022/10/15 02:31:50;;;;;;;31.73;25.73;;;;;;;11.53;100.00;100625.28;5052798;28;19958;-56
2022/10/15 02:34:19;;;;;;;31.77;27.58;;;;;;;11.54;100.00;100634.97;5054574;28;20581;-56
2022/10/15 02:36:46;;;;;;;30.08;26.60;;;;;;;11.54;100.00;100618.13;5054255;28;20474;-56
2022/10/15 02:39:17;;;;;;;34.28;27.83;;;;;;;11.55;100.00;100618.00;5044787;28;20034;-54
2022/10/15 02:41:43;;;;;;;33.30;28.75;;;;;;;11.55;100.00;100618.00;5054148;28;20033;-56
2022/10/15 02:44:09;;;;;;;35.63;28.05;;;;;;;11.57;100.00;100609.91;5053849;28;20422;-56
2022/10/15 02:46:34;;;;;;;36.13;28.80;;;;;;;11.59;100.00;100610.63;5053975;28;20048;-55
2022/10/15 02:48:59;;;;;;;34.92;27.63;;;;;;;11.58;100.00;100607.13;5054193;28;20044;-55
2022/10/15 02:51:24;;;;;;;34.38;28.25;;;;;;;11.60;100.00;100599.00;5052323;28;20164;-56
2022/10/15 02:53:50;;;;;;;34.90;27.73;;;;;;;11.61;100.00;100598.06;5043043;28;20025;-55
2022/10/15 02:56:15;;;;;;;33.03;28.75;;;;;;;11.62;100.00;100599.72;5053562;28;20051;-56
2022/10/15 02:58:40;;;;;;;33.85;29.05;;;;;;;11.63;100.00;100594.28;5053497;28;20040;-55
2022/10/15 03:01:06;;;;;;;33.38;27.77;;;;;;;11.62;100.00;100595.25;5053768;28;20028;-55
2022/10/15 03:03:31;;;;;;;35.63;29.02;;;;;;;11.63;100.00;100588.94;5053542;28;20032;-55
2022/10/15 03:05:56;;;;;;;32.83;28.85;;;;;;;11.63;100.00;100588.94;5053860;28;20036;-55
2022/10/15 03:08:21;;;;;;;36.72;29.10;;;;;;;11.64;100.00;100590.66;5053076;28;20032;-54
2022/10/15 03:10:47;;;;;;;34.42;29.02;;;;;;;11.65;100.00;100591.47;5053464;28;20096;-54
2022/10/15 03:13:12;;;;;;;34.83;28.95;;;;;;;11.67;100.00;100584.22;5053978;28;20044;-55
2022/10/15 03:15:38;;;;;;;36.40;28.75;;;;;;;11.67;100.00;100584.22;5053610;28;20021;-55
2022/10/15 03:18:04;;;;;;;34.05;28.45;;;;;;;11.68;100.00;100588.56;5049360;28;20111;-55
2022/10/15 03:20:29;;;;;;;35.15;29.58;;;;;;;11.68;100.00;100585.06;5050157;28;20029;-56
2022/10/15 03:22:54;;;;;;;33.83;27.85;;;;;;;11.69;100.00;100584.94;5045302;28;20039;-55
2022/10/15 03:25:20;;;;;;;32.83;28.05;;;;;;;11.70;100.00;100588.44;5048405;28;20568;-54
2022/10/15 03:27:46;;;;;;;35.63;28.85;;;;;;;11.70;100.00;100588.44;5045029;28;20040;-53
2022/10/15 03:30:12;;;;;;;35.22;28.65;;;;;;;11.71;100.00;100598.94;5047910;28;20051;-55
2022/10/15 03:32:37;;;;;;;36.20;27.30;;;;;;;11.71;100.00;100595.41;5053712;28;20486;-55
2022/10/15 03:35:02;;;;;;;37.95;28.83;;;;;;;11.72;100.00;100597.13;5053287;28;20031;-55
2022/10/15 03:37:28;;;;;;;35.88;27.67;;;;;;;11.73;100.00;100589.00;5053353;28;20033;-55
2022/10/15 03:39:53;;;;;;;36.20;27.90;;;;;;;11.75;100.00;100591.53;5051630;28;20128;-53
2022/10/15 03:42:18;;;;;;;39.80;28.80;;;;;;;11.76;100.00;100594.06;5053303;28;20290;-57
2022/10/15 03:44:44;;;;;;;39.35;28.50;;;;;;;11.76;100.00;100582.59;5053029;28;20027;-56
2022/10/15 03:47:09;;;;;;;33.42;27.48;;;;;;;11.76;100.00;100578.09;5052542;28;20029;-56
2022/10/15 03:49:34;;;;;;;38.63;28.02;;;;;;;11.77;100.00;100578.94;5052658;28;20049;-56
2022/10/15 03:51:59;;;;;;;38.17;28.42;;;;;;;11.77;100.00;100573.63;5052720;28;20013;-54
2022/10/15 03:54:25;;;;;;;40.58;28.42;;;;;;;11.77;100.00;100578.94;5050813;28;20479;-55
2022/10/15 03:56:50;;;;;;;33.63;26.60;;;;;;;11.78;100.00;100581.47;5043920;28;20474;-54
2022/10/15 03:59:15;;;;;;;38.95;28.67;;;;;;;11.78;100.00;100577.97;5052757;28;20020;-54
2022/10/15 04:01:42;;;;;;;38.65;27.98;;;;;;;11.78;100.00;100577.97;5052671;28;20483;-54
2022/10/15 04:04:09;;;;;;;38.65;27.77;;;;;;;11.77;100.00;100576.28;5043000;28;20064;-55
2022/10/15 04:06:35;;;;;;;38.67;28.75;;;;;;;11.79;100.00;100579.66;5052776;28;20029;-55
2022/10/15 04:09:00;;;;;;;38.00;28.50;;;;;;;11.80;100.00;100584.00;5050131;28;20028;-56
2022/10/15 04:11:25;;;;;;;36.88;27.92;;;;;;;11.79;100.00;100583.19;5043068;28;20025;-56
2022/10/15 04:13:51;;;;;;;41.75;29.30;;;;;;;11.80;100.00;100589.31;5052677;28;20017;-56
2022/10/15 04:16:16;;;;;;;40.83;29.60;;;;;;;11.82;100.00;100582.06;5052057;28;20029;-56
2022/10/15 04:18:42;;;;;;;46.20;30.92;;;;;;;11.83;100.00;100579.25;5049560;28;20064;-53
2022/10/15 04:21:08;;;;;;;43.40;29.98;;;;;;;11.83;100.00;100589.06;5052459;28;20087;-56
2022/10/15 04:23:33;;;;;;;44.95;29.58;;;;;;;11.84;100.00;100590.75;5052136;28;20021;-56
2022/10/15 04:26:00;;;;;;;47.13;31.63;;;;;;;11.87;100.00;100594.97;5043857;28;20025;-55
2022/10/15 04:28:25;;;;;;;42.95;31.08;;;;;;;11.88;100.00;100601.97;5049205;28;20109;-56
2022/10/15 04:30:54;;;;;;;44.22;31.73;;;;;;;11.89;100.00;100598.31;5051022;28;20119;-55
2022/10/15 04:33:19;;;;;;;46.28;32.75;;;;;;;11.91;100.00;100586.63;5052387;28;20079;-54
2022/10/15 04:35:44;;;;;;;43.00;32.50;;;;;;;11.93;100.00;100583.84;5049604;28;20033;-56
2022/10/15 04:38:10;;;;;;;48.55;33.63;;;;;;;11.94;100.00;100589.03;5051985;28;20494;-55
2022/10/15 04:40:35;;;;;;;50.08;33.83;;;;;;;11.98;100.00;100573.63;5051842;28;20025;-55
2022/10/15 04:43:00;;;;;;;50.42;33.55;;;;;;;11.96;100.00;100578.25;5051967;28;20021;-56
2022/10/15 04:45:25;;;;;;;49.20;32.92;;;;;;;11.97;100.00;100575.44;5049163;28;20029;-56
2022/10/15 04:47:51;;;;;;;48.92;32.80;;;;;;;11.98;100.00;100582.44;5052259;28;20025;-54
2022/10/15 04:50:16;;;;;;;52.47;32.75;;;;;;;12.00;100.00;100577.81;5052181;28;20045;-55
2022/10/15 04:52:41;;;;;;;43.97;32.30;;;;;;;12.02;100.00;100583.88;5040104;28;20028;-54
2022/10/15 04:55:07;;;;;;;45.47;32.28;;;;;;;12.03;100.00;100576.72;5052073;28;20029;-55
2022/10/15 04:57:32;;;;;;;51.38;33.15;;;;;;;12.01;100.00;100568.03;5051879;28;20466;-56
2022/10/15 04:59:57;;;;;;;46.33;32.55;;;;;;;12.04;100.00;100567.78;5052246;28;20020;-55
2022/10/15 05:02:22;;;;;;;46.90;34.08;;;;;;;12.06;100.00;100573.81;5045862;28;20057;-57
2022/10/15 05:04:48;;;;;;;47.72;32.65;;;;;;;12.07;100.00;100574.63;5041617;28;20074;-56
2022/10/15 05:07:13;;;;;;;43.17;31.10;;;;;;;12.07;100.00;100572.81;5051238;28;20056;-56
2022/10/15 05:09:38;;;;;;;44.45;31.75;;;;;;;12.09;100.00;100578.88;5051928;28;20025;-56
2022/10/15 05:12:04;;;;;;;42.65;31.70;;;;;;;12.10;100.00;100582.34;5051733;28;20029;-56
2022/10/15 05:14:29;;;;;;;41.63;30.92;;;;;;;12.08;100.00;100584.31;5052173;28;20032;-56
2022/10/15 05:16:54;;;;;;;40.00;30.08;;;;;;;12.06;100.00;100587.13;5051308;28;20059;-55
2022/10/15 05:19:19;;;;;;;40.45;29.63;;;;;;;12.07;100.00;100579.97;5052057;28;20120;-56
2022/10/15 05:21:45;;;;;;;40.63;29.42;;;;;;;12.05;100.00;100582.75;5044288;28;20142;-55
2022/10/15 05:24:10;;;;;;;37.33;28.27;;;;;;;12.06;100.00;100586.25;5055962;28;20459;-55
2022/10/15 05:26:35;;;;;;;39.97;29.65;;;;;;;12.05;100.00;100584.59;5055832;28;20075;-55
2022/10/15 05:29:01;;;;;;;38.35;29.13;;;;;;;12.05;100.00;100585.41;5049900;28;20021;-55
2022/10/15 05:31:31;;;;;;;39.22;30.20;;;;;;;12.05;100.00;100576.59;5054856;28;20036;-55
2022/10/15 05:33:56;;;;;;;39.22;29.45;;;;;;;12.05;100.00;100588.06;5044899;28;20025;-55
2022/10/15 05:36:26;;;;;;;40.83;29.20;;;;;;;12.03;100.00;100582.06;5055429;28;20020;-55
2022/10/15 05:38:54;;;;;;;41.00;29.92;;;;;;;12.05;100.00;100585.41;5055437;28;20037;-54
2022/10/15 05:41:20;;;;;;;38.85;29.92;;;;;;;12.05;100.00;100584.59;5047056;28;20025;-54
2022/10/15 05:43:47;;;;;;;41.03;28.95;;;;;;;12.06;100.00;100584.44;5055534;28;20035;-55
2022/10/15 05:46:13;;;;;;;37.72;29.30;;;;;;;12.03;100.00;100572.25;5053275;28;20025;-55
2022/10/15 05:48:38;;;;;;;39.90;30.05;;;;;;;12.06;100.00;100576.47;5054962;28;20054;-55
2022/10/15 05:51:05;;;;;;;41.15;29.25;;;;;;;12.05;100.00;100566.78;5054421;28;20044;-54
2022/10/15 05:53:30;;;;;;;43.45;29.80;;;;;;;12.05;100.00;100577.44;5044227;28;20033;-53
2022/10/15 05:55:57;;;;;;;40.83;29.15;;;;;;;12.05;100.00;100576.59;5053560;28;20017;-54
2022/10/15 05:58:24;;;;;;;38.58;29.13;;;;;;;12.07;100.00;100580.78;5052967;28;20064;-55
2022/10/15 06:00:57;;;;;;;41.45;30.63;;;;;;;12.08;100.00;100571.00;5054633;28;20738;-58
2022/10/15 06:03:23;;;;;;;43.15;30.00;;;;;;;12.09;100.00;100570.88;5051553;28;20029;-55
2022/10/15 06:05:49;;;;;;;39.33;30.25;;;;;;;12.07;100.00;100572.81;5054870;28;20106;-55
2022/10/15 06:08:15;;;;;;;43.97;30.30;;;;;;;12.09;100.00;100578.00;5054706;28;20466;-54
2022/10/15 06:10:40;;;;;;;41.70;30.13;;;;;;;12.08;100.00;100576.34;5050134;28;20458;-54
2022/10/15 06:13:06;;;;;;;39.42;29.10;;;;;;;12.08;100.00;100579.81;5052225;28;20627;-55
2022/10/15 06:15:32;;;;;;;39.53;29.77;;;;;;;12.07;100.00;100577.31;5053788;28;20033;-54
2022/10/15 06:17:58;;;;;;;40.88;29.40;;;;;;;12.06;100.00;100572.94;5053302;28;20074;-53
2022/10/15 06:20:23;;;;;;;39.33;28.63;;;;;;;12.07;100.00;100571.97;5045841;28;20442;-52
2022/10/15 06:22:49;;;;;;;43.30;29.88;;;;;;;12.07;100.00;100577.31;5053627;28;20032;-55
2022/10/15 06:25:14;;;;;;;37.55;28.48;;;;;;;12.09;100.00;100578.00;5049202;28;20091;-54
2022/10/15 06:27:39;;;;;;;41.60;30.08;;;;;;;12.07;100.00;100575.47;5053409;28;20141;-55
2022/10/15 06:30:05;;;;;;;42.80;31.58;;;;;;;12.09;100.00;100573.53;5053740;28;20064;-53
2022/10/15 06:32:30;;;;;;;44.33;31.50;;;;;;;12.10;100.00;100577.88;5052021;28;20072;-54
2022/10/15 06:34:56;;;;;;;45.65;31.77;;;;;;;12.10;100.00;100577.88;5052851;28;20474;-53
2022/10/15 06:37:21;;;;;;;43.40;31.40;;;;;;;12.10;100.00;100572.53;5051987;28;20039;-54
2022/10/15 06:39:47;;;;;;;43.08;31.15;;;;;;;12.10;100.00;100583.19;5052268;28;20028;-55
2022/10/15 06:42:12;;;;;;;44.20;31.08;;;;;;;12.10;100.00;100572.53;5051846;28;20371;-54
2022/10/15 06:44:38;;;;;;;47.28;32.60;;;;;;;12.10;100.00;100572.53;5049880;28;20028;-54
2022/10/15 06:47:03;;;;;;;45.38;31.60;;;;;;;12.11;100.00;100568.09;5050826;28;20029;-53
2022/10/15 06:49:29;;;;;;;45.53;32.47;;;;;;;12.10;100.00;100569.03;5048803;28;20055;-54
2022/10/15 06:51:54;;;;;;;46.53;31.98;;;;;;;12.10;100.00;100575.22;5050239;28;20072;-55
2022/10/15 06:54:20;;;;;;;43.10;32.30;;;;;;;12.10;100.00;100569.03;5049345;28;20052;-54
2022/10/15 06:56:45;;;;;;;44.53;31.83;;;;;;;12.08;100.00;100566.53;5049978;28;21264;-54
2022/10/15 06:59:10;;;;;;;47.35;34.13;;;;;;;12.10;100.00;100575.22;5050648;28;20288;-54
2022/10/15 07:01:35;;;;;;;43.65;32.65;;;;;;;12.11;100.00;100579.56;5049872;28;20041;-54
2022/10/15 07:04:01;;;;;;;43.10;32.38;;;;;;;12.11;100.00;100571.56;5051913;28;20037;-55
2022/10/15 07:06:26;;;;;;;41.38;30.52;;;;;;;12.12;100.00;100575.91;5052332;28;20356;-54
2022/10/15 07:08:51;;;;;;;41.72;30.80;;;;;;;12.14;100.00;100586.44;5047383;28;20048;-52
2022/10/15 07:11:17;;;;;;;39.20;29.00;;;;;;;12.13;100.00;100587.41;5052136;28;20483;-54
2022/10/15 07:13:43;;;;;;;42.15;30.88;;;;;;;12.14;100.00;100591.75;5049834;28;20295;-53
2022/10/15 07:16:10;;;;;;;39.03;29.63;;;;;;;12.13;100.00;100590.09;5050044;28;20063;-54
2022/10/15 07:18:36;;;;;;;41.33;29.50;;;;;;;12.15;100.00;100588.97;5050782;28;20429;-51
2022/10/15 07:21:03;;;;;;;39.85;29.42;;;;;;;12.18;100.00;100583.38;5051163;28;20090;-51
2022/10/15 07:23:28;;;;;;;39.40;28.83;;;;;;;12.19;100.00;100569.09;5050553;28;20045;-54
2022/10/15 07:25:56;;;;;;;40.03;27.88;;;;;;;12.21;100.00;100569.78;5051649;28;20025;-54
2022/10/15 07:28:21;;;;;;;35.35;26.80;;;;;;;12.26;100.00;100565.88;5047928;28;20041;-54
2022/10/15 07:30:47;;;;;;;37.30;27.15;;;;;;;12.31;100.00;100555.69;5050183;28;20074;-55
2022/10/15 07:33:12;;;;;;;36.47;27.75;;;;;;;12.34;100.00;100553.56;5050364;28;20041;-53
2022/10/15 07:35:37;;;;;;;35.55;26.15;;;;;;;12.36;100.00;100554.28;5051124;28;20033;-54
2022/10/15 07:38:03;;;;;;;35.50;26.60;;;;;;;12.38;100.00;100541.66;5050773;28;20043;-55
2022/10/15 07:40:29;;;;;;;33.88;25.77;;;;;;;12.43;100.00;100548.41;5051018;28;20056;-53
2022/10/15 07:42:56;;;;;;;31.70;23.90;;;;;;;12.43;100.00;100551.06;5048110;28;20107;-54
2022/10/15 07:45:22;;;;;;;30.63;23.00;;;;;;;12.45;100.00;100549.94;5048875;28;20029;-55
2022/10/15 07:47:48;;;;;;;31.27;24.42;;;;;;;12.47;100.00;100550.66;5048140;28;20047;-54
2022/10/15 07:50:13;;;;;;;31.35;23.48;;;;;;;12.51;100.00;100543.25;5051039;28;20112;-52
2022/10/15 07:52:38;;;;;;;35.70;24.65;;;;;;;12.61;100.00;100543.22;5052862;28;20032;-53
2022/10/15 07:55:04;;;;;;;29.52;22.33;;;;;;;12.65;100.00;100532.16;5052112;28;20025;-55
2022/10/15 07:57:30;;;;;;;27.50;21.50;;;;;;;12.69;100.00;100535.41;5052007;28;20040;-56
2022/10/15 07:59:55;;;;;;;31.73;22.83;;;;;;;12.72;100.00;100538.66;5052765;28;20049;-54
2022/10/15 08:02:21;;;;;;;25.90;20.27;;;;;;;12.76;100.00;100532.03;5052226;28;20494;-55
2022/10/15 08:04:46;;;;;;;27.65;20.55;;;;;;;12.81;100.00;100531.63;5048090;28;20395;-53
2022/10/15 08:07:12;;;;;;;26.90;19.98;;;;;;;12.87;100.00;100536.41;5051996;28;20021;-55
2022/10/15 08:09:37;;;;;;;25.17;18.37;;;;;;;12.93;100.00;100525.16;5051646;28;20025;-53
2022/10/15 08:12:05;;;;;;;23.17;17.52;;;;;;;12.99;100.00;100525.59;5052712;28;20292;-56
2022/10/15 08:14:34;;;;;;;24.73;17.42;;;;;;;13.04;100.00;100516.19;5050402;28;20394;-54
2022/10/15 08:17:00;;;;;;;24.03;17.80;;;;;;;13.09;100.00;100518.41;5049164;28;20060;-55
2022/10/15 08:19:26;;;;;;;22.83;17.23;;;;;;;13.16;100.00;100521.38;5050424;28;20032;-55
2022/10/15 08:21:51;;;;;;;21.02;16.35;;;;;;;13.24;100.00;100516.16;5050817;28;20017;-55
2022/10/15 08:24:17;;;;;;;20.15;15.30;;;;;;;13.32;100.00;100508.31;5042393;28;20359;-57
2022/10/15 08:26:42;;;;;;;17.90;13.35;;;;;;;13.39;100.00;100513.91;5048037;28;20028;-55
2022/10/15 08:29:09;;;;;;;16.85;13.02;;;;;;;13.43;100.00;100520.66;5050156;28;20147;-55
2022/10/15 08:31:34;;;;;;;24.75;13.27;;;;;;;13.48;100.00;100521.88;5049692;28;20025;-56
2022/10/15 08:34:01;;;;;;;15.45;11.45;;;;;;;13.55;100.00;100518.66;5050305;28;20032;-55
2022/10/15 08:36:26;;;;;;;14.23;11.68;;;;;;;13.58;100.00;100513.03;5047366;28;20384;-54
2022/10/15 08:38:52;;;;;;;13.70;10.25;;;;;;;13.61;100.00;100518.09;5050762;28;20035;-54
2022/10/15 08:41:34;;;;;;;16.45;10.32;;;;;;;13.64;100.00;100496.44;5050576;28;20025;-54
2022/10/15 08:44:01;;;;;;;11.07;8.68;;;;;;;13.66;100.00;100497.13;5051287;28;20021;-56
2022/10/15 08:46:36;;;;;;;14.55;8.30;;;;;;;13.70;100.00;100495.84;5048012;28;20466;-56
2022/10/15 08:49:02;;;;;;;11.77;7.93;;;;;;;13.74;100.00;100494.56;5051629;28;20041;-55
2022/10/15 08:51:37;;;;;;;9.88;6.90;;;;;;;13.77;100.00;100490.75;5061010;28;20037;-55
2022/10/15 08:54:04;;;;;;;8.45;7.30;;;;;;;13.80;100.00;100485.13;5048385;28;20072;-55
2022/10/15 08:56:33;;;;;;;9.25;6.75;;;;;;;13.80;100.00;100485.97;5055739;28;20025;-53
2022/10/15 08:59:06;;;;;;;7.85;6.75;;;;;;;13.82;100.00;100484.00;5056228;28;20387;-55
2022/10/15 09:01:39;;;;;;;9.25;6.22;;;;;;;13.86;100.00;100476.53;5053512;28;20028;-54
2022/10/15 09:04:45;;;;;;;9.32;6.72;;;;;;;13.91;100.00;100471.59;5053728;28;20037;-56
2022/10/15 09:07:24;;;;;;;9.95;6.88;;;;;;;13.95;100.00;100472.13;5052370;28;20056;-55
2022/10/15 09:09:52;;;;;;;8.32;6.45;;;;;;;13.96;100.00;100469.31;5052341;28;20037;-56
2022/10/15 09:12:29;;;;;;;8.50;7.30;;;;;;;13.99;100.00;100466.34;5054016;28;20036;-55
2022/10/15 09:14:57;;;;;;;8.38;6.88;;;;;;;13.99;100.00;100462.81;5054157;28;20086;-55
2022/10/15 09:17:26;;;;;;;9.38;7.07;;;;;;;14.00;100.00;100467.19;5049276;28;20028;-56
2022/10/15 09:19:56;;;;;;;8.20;6.43;;;;;;;14.02;100.00;100470.53;5052992;28;20067;-54
2022/10/15 09:22:28;;;;;;;7.40;6.05;;;;;;;14.03;100.00;100464.22;5052422;28;20383;-56
2022/10/15 09:24:54;;;;;;;8.18;6.63;;;;;;;14.05;100.00;100467.56;5052864;28;20056;-55
2022/10/15 09:27:35;;;;;;;8.32;6.15;;;;;;;14.09;100.00;100468.97;5054026;28;20024;-56
2022/10/15 09:30:41;;;;;;;7.70;5.85;;;;;;;14.13;100.00;100475.69;5051832;28;20029;-55
2022/10/15 09:33:38;;;;;;;6.10;5.50;;;;;;;14.14;100.00;100461.34;5049929;28;20033;-54
2022/10/15 09:36:17;;;;;;;7.25;5.40;;;;;;;14.16;100.00;100454.00;5052934;28;20075;-56
2022/10/15 09:38:58;;;;;;;8.07;5.28;;;;;;;14.19;100.00;100460.91;5051975;28;20478;-55
2022/10/15 09:41:45;;;;;;;6.47;4.85;;;;;;;14.20;100.00;100457.22;5050976;28;20103;-55
2022/10/15 09:44:13;;;;;;;5.97;4.97;;;;;;;14.20;100.00;100454.56;5053436;28;21092;-55
2022/10/15 09:46:47;;;;;;;7.00;5.75;;;;;;;14.19;100.00;100455.56;5052036;28;20394;-55
2022/10/15 09:49:19;;;;;;;7.15;4.72;;;;;;;14.17;100.00;100454.84;5052474;28;20040;-55
2022/10/15 09:52:10;;;;;;;7.03;4.43;;;;;;;14.15;100.00;100454.16;5049147;28;20112;-55
2022/10/15 09:54:42;;;;;;;6.55;4.60;;;;;;;14.18;100.00;100448.53;5054617;28;20483;-56
2022/10/15 09:57:10;;;;;;;6.28;4.55;;;;;;;14.21;100.00;100445.56;5053986;28;20040;-55
2022/10/15 09:59:35;;;;;;;6.87;4.43;;;;;;;14.22;100.00;100441.88;5052130;28;20029;-55
2022/10/15 10:02:04;;;;;;;5.00;4.20;;;;;;;14.24;100.00;100448.75;5050153;28;20370;-54
2022/10/15 10:04:32;;;;;;;4.85;4.00;;;;;;;14.26;100.00;100440.59;5052280;28;20033;-55
2022/10/15 10:07:01;;;;;;;5.05;3.72;;;;;;;14.28;100.00;100445.78;5051233;28;20029;-53
2022/10/15 10:09:54;;;;;;;5.13;3.55;;;;;;;14.32;100.00;100437.34;5050147;28;20036;-53
2022/10/15 10:12:24;;;;;;;5.78;3.63;;;;;;;14.32;100.00;100432.00;5054726;28;20021;-58
2022/10/15 10:15:01;;;;;;;3.63;3.00;;;;;;;14.37;100.00;100429.69;5054110;28;20029;-54
2022/10/15 10:17:28;;;;;;;5.15;3.03;;;;;;;14.39;100.00;100434.88;5048387;28;20033;-53
2022/10/15 10:20:08;;;;;;;4.00;2.95;;;;;;;14.44;100.00;100433.44;5053232;28;20064;-54
2022/10/15 10:22:45;;;;;;;3.90;2.80;;;;;;;14.48;100.00;100444.66;5053193;28;20120;-53
2022/10/15 10:25:43;;;;;;;3.00;2.65;;;;;;;14.53;100.00;100434.34;5052906;28;20033;-54
2022/10/15 10:28:10;;;;;;;3.65;2.90;;;;;;;14.55;100.00;100429.66;5038987;28;20052;-54
2022/10/15 10:30:47;;;;;;;2.75;2.40;;;;;;;14.55;100.00;100427.00;5051780;28;20033;-54
2022/10/15 10:33:19;;;;;;;3.60;2.70;;;;;;;14.61;100.00;100422.91;5045436;28;20056;-54
2022/10/15 10:35:48;;;;;;;2.90;2.60;;;;;;;14.65;100.00;100442.16;5046046;28;20441;-55
2022/10/15 10:38:23;;;;;;;4.55;2.45;;;;;;;14.68;100.00;100439.19;5041614;28;20490;-54
2022/10/15 10:40:54;;;;;;;3.30;2.40;;;;;;;14.69;100.00;100438.16;5051536;28;20029;-51
2022/10/15 10:43:28;;;;;;;2.63;2.40;;;;;;;14.72;100.00;100438.72;5048158;28;20041;-54
2022/10/15 10:45:59;;;;;;;4.22;2.42;;;;;;;14.77;100.00;100431.06;5049137;28;20033;-55
2022/10/15 10:48:28;;;;;;;2.40;2.17;;;;;;;14.80;100.00;100445.94;5051583;28;20469;-55
2022/10/15 10:51:05;;;;;;;2.53;2.15;;;;;;;14.84;100.00;100444.66;5051230;28;20048;-55
2022/10/15 10:53:33;;;;;;;3.08;2.30;;;;;;;14.87;100.00;100439.00;5049614;28;20405;-56
2022/10/15 10:56:03;;;;;;;3.55;2.40;;;;;;;14.92;100.00;100427.81;5051659;28;20017;-54
2022/10/15 10:58:32;;;;;;;3.22;2.55;;;;;;;14.95;100.00;100438.22;5051208;28;20041;-54
2022/10/15 11:00:58;;;;;;;2.92;2.60;;;;;;;14.99;100.00;100428.91;5051744;28;20032;-55
2022/10/15 11:03:50;;;;;;;3.00;2.80;;;;;;;15.02;100.00;100428.59;5050704;28;20367;-54
2022/10/15 11:06:43;;;;;;;4.97;2.70;;;;;;;15.07;100.00;100431.63;5046723;28;20069;-55
2022/10/15 11:09:17;;;;;;;2.95;2.65;;;;;;;15.12;100.00;100426.66;5050073;28;20056;-55
2022/10/15 11:12:06;;;;;;;4.38;2.63;;;;;;;15.17;100.00;100420.78;5048932;28;20028;-54
2022/10/15 11:15:19;;;;;;;3.08;2.75;;;;;;;15.23;100.00;100422.84;5050331;28;20091;-55